createdAt,value
2017-09-06T00:00:21.938Z,16.93
2017-09-06T00:01:21.878Z,17.04
2017-09-06T00:02:21.840Z,16.94
2017-09-06T00:03:21.811Z,16.96
2017-09-06T00:04:21.775Z,16.94
2017-09-06T00:05:21.740Z,16.96
2017-09-06T00:06:21.710Z,16.94
2017-09-06T00:07:21.686Z,17.05
2017-09-06T00:08:21.648Z,16.96
2017-09-06T00:09:21.609Z,16.97
2017-09-06T00:10:21.580Z,16.96
2017-09-06T00:11:21.551Z,17.05
2017-09-06T00:12:21.520Z,17.09
2017-09-06T00:13:21.488Z,17.11
2017-09-06T00:14:21.448Z,17.04
2017-09-06T00:15:21.415Z,17.04
2017-09-06T00:16:21.385Z,17.11
2017-09-06T00:17:21.353Z,17.02
2017-09-06T00:18:21.322Z,17.09
2017-09-06T00:19:21.288Z,17.05
2017-09-06T00:20:21.259Z,16.97
2017-09-06T00:21:21.229Z,16.97
2017-09-06T00:22:21.202Z,16.93
2017-09-06T00:23:21.159Z,16.94
2017-09-06T00:24:21.128Z,16.96
2017-09-06T00:25:21.096Z,17.06
2017-09-06T00:26:21.061Z,17.05
2017-09-06T00:27:21.029Z,17.01
2017-09-06T00:28:21.005Z,17.08
2017-09-06T00:29:20.970Z,17.05
2017-09-06T00:30:20.937Z,17.09
2017-09-06T00:31:20.920Z,17.05
2017-09-06T00:32:20.895Z,17.02
2017-09-06T00:33:20.839Z,17.05
2017-09-06T00:34:20.806Z,16.97
2017-09-06T00:35:20.771Z,16.93
2017-09-06T00:36:20.738Z,16.97
2017-09-06T00:37:20.718Z,16.97
2017-09-06T00:38:20.682Z,16.97
2017-09-06T00:39:20.650Z,16.97
2017-09-06T00:40:20.611Z,16.97
2017-09-06T00:41:20.577Z,16.97
2017-09-06T00:42:20.550Z,17.01
2017-09-06T00:43:20.525Z,16.96
2017-09-06T00:44:20.499Z,16.86
2017-09-06T00:45:20.456Z,16.94
2017-09-06T00:46:20.419Z,16.84
2017-09-06T00:47:20.436Z,16.90
2017-09-06T00:48:20.352Z,16.86
2017-09-06T00:49:20.323Z,16.83
2017-09-06T00:50:20.330Z,16.78
2017-09-06T00:51:20.260Z,16.76
2017-09-06T00:52:20.232Z,16.76
2017-09-06T00:53:20.190Z,16.79
2017-09-06T00:54:20.159Z,16.83
2017-09-06T00:55:20.128Z,16.83
2017-09-06T00:56:20.094Z,16.86
2017-09-06T00:57:20.071Z,16.86
2017-09-06T00:58:20.035Z,16.87
2017-09-06T00:59:20.021Z,16.84
2017-09-06T01:00:19.970Z,16.86
2017-09-06T01:01:19.936Z,16.89
2017-09-06T01:02:19.894Z,16.83
2017-09-06T01:03:19.869Z,16.79
2017-09-06T01:04:19.842Z,16.78
2017-09-06T01:05:19.807Z,16.78
2017-09-06T01:06:19.769Z,16.75
2017-09-06T01:07:19.738Z,16.75
2017-09-06T01:08:19.700Z,16.76
2017-09-06T01:09:19.675Z,16.75
2017-09-06T01:10:19.646Z,16.76
2017-09-06T01:11:19.610Z,16.81
2017-09-06T01:12:19.585Z,16.79
2017-09-06T01:13:19.547Z,16.83
2017-09-06T01:14:19.511Z,16.79
2017-09-06T01:15:19.481Z,16.78
2017-09-06T01:16:19.445Z,16.72
2017-09-06T01:17:19.412Z,16.76
2017-09-06T01:18:19.380Z,16.79
2017-09-06T01:19:19.349Z,16.76
2017-09-06T01:20:19.318Z,16.72
2017-09-06T01:21:19.289Z,16.78
2017-09-06T01:22:19.253Z,16.66
2017-09-06T01:23:19.219Z,16.58
2017-09-06T01:24:19.198Z,16.64
2017-09-06T01:25:19.166Z,16.65
2017-09-06T01:26:19.119Z,16.64
2017-09-06T01:27:19.091Z,16.66
2017-09-06T01:28:19.059Z,16.60
2017-09-06T01:29:19.029Z,16.66
2017-09-06T01:30:18.990Z,16.64
2017-09-06T01:31:18.959Z,16.60
2017-09-06T01:32:18.931Z,16.64
2017-09-06T01:33:18.890Z,16.53
2017-09-06T01:34:18.861Z,16.57
2017-09-06T01:35:18.838Z,16.58
2017-09-06T01:36:18.802Z,16.51
2017-09-06T01:37:18.770Z,16.53
2017-09-06T01:38:18.728Z,16.64
2017-09-06T01:39:18.697Z,16.60
2017-09-06T01:40:18.658Z,16.60
2017-09-06T01:41:18.629Z,16.57
2017-09-06T01:42:18.596Z,16.57
2017-09-06T01:43:18.571Z,16.65
2017-09-06T01:44:18.532Z,16.66
2017-09-06T01:45:18.500Z,16.61
2017-09-06T01:46:18.469Z,16.64
2017-09-06T01:47:18.442Z,16.66
2017-09-06T01:48:18.410Z,16.71
2017-09-06T01:49:18.370Z,16.64
2017-09-06T01:50:18.346Z,16.71
2017-09-06T01:51:18.315Z,16.65
2017-09-06T01:52:18.276Z,16.65
2017-09-06T01:53:18.242Z,16.71
2017-09-06T01:54:18.216Z,16.65
2017-09-06T01:55:18.176Z,16.68
2017-09-06T01:56:18.147Z,16.68
2017-09-06T01:57:18.119Z,16.65
2017-09-06T01:58:18.080Z,16.61
2017-09-06T01:59:18.050Z,16.69
2017-09-06T02:00:18.014Z,16.65
2017-09-06T02:01:17.979Z,16.72
2017-09-06T02:02:17.955Z,16.66
2017-09-06T02:03:17.919Z,16.66
2017-09-06T02:04:17.889Z,16.64
2017-09-06T02:05:17.851Z,16.74
2017-09-06T02:06:17.821Z,16.65
2017-09-06T02:07:17.785Z,16.65
2017-09-06T02:08:17.754Z,16.69
2017-09-06T02:09:17.723Z,16.69
2017-09-06T02:10:17.683Z,16.69
2017-09-06T02:11:17.653Z,16.71
2017-09-06T02:12:17.620Z,16.68
2017-09-06T02:13:17.596Z,16.61
2017-09-06T02:14:17.556Z,16.60
2017-09-06T02:15:17.520Z,16.66
2017-09-06T02:16:17.501Z,16.64
2017-09-06T02:17:17.455Z,16.72
2017-09-06T02:18:17.423Z,16.64
2017-09-06T02:19:17.389Z,16.61
2017-09-06T02:20:17.367Z,16.68
2017-09-06T02:21:17.327Z,16.66
2017-09-06T02:22:17.291Z,16.64
2017-09-06T02:23:17.260Z,16.60
2017-09-06T02:24:17.242Z,16.56
2017-09-06T02:25:17.203Z,16.57
2017-09-06T02:26:17.161Z,16.53
2017-09-06T02:27:17.129Z,16.57
2017-09-06T02:28:17.113Z,16.60
2017-09-06T02:29:17.067Z,16.60
2017-09-06T02:30:17.037Z,16.61
2017-09-06T02:31:17.011Z,16.65
2017-09-06T02:32:16.972Z,16.57
2017-09-06T02:33:16.940Z,16.54
2017-09-06T02:34:16.903Z,16.60
2017-09-06T02:35:16.867Z,16.60
2017-09-06T02:36:16.841Z,16.57
2017-09-06T02:37:16.811Z,16.56
2017-09-06T02:38:16.781Z,16.61
2017-09-06T02:39:16.739Z,16.64
2017-09-06T02:40:16.715Z,16.57
2017-09-06T02:41:16.677Z,16.58
2017-09-06T02:42:16.644Z,16.61
2017-09-06T02:43:16.617Z,16.57
2017-09-06T02:44:16.583Z,16.60
2017-09-06T02:45:16.559Z,16.51
2017-09-06T02:46:16.518Z,16.60
2017-09-06T02:47:16.480Z,16.61
2017-09-06T02:48:16.448Z,16.61
2017-09-06T02:49:16.434Z,16.51
2017-09-06T02:50:16.410Z,16.57
2017-09-06T02:51:16.349Z,16.57
2017-09-06T02:52:16.332Z,16.60
2017-09-06T02:53:16.296Z,16.60
2017-09-06T02:54:16.257Z,16.51
2017-09-06T02:55:16.224Z,16.49
2017-09-06T02:56:16.196Z,16.54
2017-09-06T02:57:16.156Z,16.58
2017-09-06T02:58:16.128Z,16.54
2017-09-06T02:59:16.096Z,16.56
2017-09-06T03:00:16.060Z,16.61
2017-09-06T03:01:16.029Z,16.61
2017-09-06T03:02:15.988Z,16.66
2017-09-06T03:03:15.963Z,16.61
2017-09-06T03:04:15.933Z,16.66
2017-09-06T03:05:15.903Z,16.64
2017-09-06T03:06:15.860Z,16.66
2017-09-06T03:07:15.836Z,16.68
2017-09-06T03:08:15.801Z,16.65
2017-09-06T03:09:15.769Z,16.60
2017-09-06T03:10:15.738Z,16.64
2017-09-06T03:11:15.704Z,16.72
2017-09-06T03:12:15.682Z,16.69
2017-09-06T03:13:15.635Z,16.66
2017-09-06T03:14:15.598Z,16.64
2017-09-06T03:15:15.570Z,16.68
2017-09-06T03:16:15.537Z,16.64
2017-09-06T03:17:15.502Z,16.71
2017-09-06T03:18:15.478Z,16.61
2017-09-06T03:19:15.441Z,16.64
2017-09-06T03:20:15.406Z,16.65
2017-09-06T03:21:15.374Z,16.61
2017-09-06T03:22:15.341Z,16.65
2017-09-06T03:23:15.305Z,16.58
2017-09-06T03:24:15.281Z,16.57
2017-09-06T03:25:15.241Z,16.56
2017-09-06T03:26:15.214Z,16.58
2017-09-06T03:27:15.187Z,16.58
2017-09-06T03:28:15.146Z,16.54
2017-09-06T03:29:15.118Z,16.60
2017-09-06T03:30:15.085Z,16.51
2017-09-06T03:31:15.061Z,16.50
2017-09-06T03:32:15.024Z,16.53
2017-09-06T03:33:14.988Z,16.64
2017-09-06T03:34:14.955Z,16.56
2017-09-06T03:35:14.949Z,16.61
2017-09-06T03:36:14.891Z,16.64
2017-09-06T03:37:14.894Z,16.56
2017-09-06T03:38:14.828Z,16.66
2017-09-06T03:39:14.792Z,16.64
2017-09-06T03:40:14.764Z,16.64
2017-09-06T03:41:14.727Z,16.56
2017-09-06T03:42:14.697Z,16.54
2017-09-06T03:43:14.656Z,16.51
2017-09-06T03:44:14.627Z,16.47
2017-09-06T03:45:14.616Z,16.51
2017-09-06T03:46:14.562Z,16.54
2017-09-06T03:47:14.531Z,16.56
2017-09-06T03:48:14.499Z,16.56
2017-09-06T03:49:14.462Z,16.51
2017-09-06T03:50:14.442Z,16.56
2017-09-06T03:51:14.402Z,16.53
2017-09-06T03:52:14.374Z,16.51
2017-09-06T03:53:14.343Z,16.56
2017-09-06T03:54:14.299Z,16.54
2017-09-06T03:55:14.275Z,16.47
2017-09-06T03:56:14.240Z,16.53
2017-09-06T03:57:14.210Z,16.56
2017-09-06T03:58:14.171Z,16.57
2017-09-06T03:59:14.139Z,16.54
2017-09-06T04:00:14.116Z,16.47
2017-09-06T04:01:14.073Z,16.47
2017-09-06T04:02:14.044Z,16.51
2017-09-06T04:03:14.010Z,16.47
2017-09-06T04:04:13.992Z,16.51
2017-09-06T04:05:13.959Z,16.50
2017-09-06T04:06:13.922Z,16.54
2017-09-06T04:07:13.883Z,16.56
2017-09-06T04:08:13.860Z,16.57
2017-09-06T04:09:13.815Z,16.54
2017-09-06T04:10:13.786Z,16.58
2017-09-06T04:11:13.756Z,16.53
2017-09-06T04:12:13.730Z,16.54
2017-09-06T04:13:13.692Z,16.56
2017-09-06T04:14:13.659Z,16.61
2017-09-06T04:15:13.622Z,16.68
2017-09-06T04:16:13.592Z,16.69
2017-09-06T04:17:13.556Z,16.65
2017-09-06T04:18:13.524Z,16.66
2017-09-06T04:19:13.499Z,16.64
2017-09-06T04:20:13.460Z,16.68
2017-09-06T04:21:13.434Z,16.64
2017-09-06T04:22:13.396Z,16.58
2017-09-06T04:23:13.367Z,16.54
2017-09-06T04:24:13.336Z,16.65
2017-09-06T04:25:13.301Z,16.68
2017-09-06T04:26:13.264Z,16.65
2017-09-06T04:27:13.240Z,16.71
2017-09-06T04:28:13.201Z,16.69
2017-09-06T04:29:13.175Z,16.74
2017-09-06T04:30:13.137Z,16.78
2017-09-06T04:31:13.115Z,16.72
2017-09-06T04:32:13.068Z,16.74
2017-09-06T04:33:13.041Z,16.81
2017-09-06T04:34:13.015Z,16.83
2017-09-06T04:35:12.983Z,16.84
2017-09-06T04:36:12.943Z,16.81
2017-09-06T04:37:12.915Z,16.87
2017-09-06T04:38:12.873Z,16.83
2017-09-06T04:39:12.843Z,16.81
2017-09-06T04:40:12.814Z,16.83
2017-09-06T04:41:12.777Z,16.87
2017-09-06T04:42:12.749Z,16.84
2017-09-06T04:43:12.718Z,16.83
2017-09-06T04:44:12.690Z,16.83
2017-09-06T04:45:12.651Z,16.87
2017-09-06T04:46:12.629Z,16.79
2017-09-06T04:47:12.584Z,16.75
2017-09-06T04:48:12.557Z,16.79
2017-09-06T04:49:12.526Z,16.83
2017-09-06T04:50:12.556Z,16.79
2017-09-06T04:51:12.453Z,16.74
2017-09-06T04:52:12.428Z,16.75
2017-09-06T04:53:12.398Z,16.75
2017-09-06T04:54:12.361Z,16.75
2017-09-06T04:55:12.327Z,16.75
2017-09-06T04:56:12.295Z,16.78
2017-09-06T04:57:12.264Z,16.81
2017-09-06T04:58:12.229Z,16.75
2017-09-06T04:59:12.202Z,16.79
2017-09-06T05:00:12.168Z,16.75
2017-09-06T05:01:12.143Z,16.74
2017-09-06T05:02:12.102Z,16.84
2017-09-06T05:03:12.076Z,16.72
2017-09-06T05:04:12.040Z,16.78
2017-09-06T05:05:12.003Z,16.81
2017-09-06T05:06:11.969Z,16.66
2017-09-06T05:07:11.958Z,16.75
2017-09-06T05:08:11.903Z,16.78
2017-09-06T05:09:11.886Z,16.81
2017-09-06T05:10:11.844Z,16.78
2017-09-06T05:11:11.812Z,16.81
2017-09-06T05:12:11.776Z,16.76
2017-09-06T05:13:11.751Z,16.74
2017-09-06T05:14:11.715Z,16.81
2017-09-06T05:15:11.684Z,16.83
2017-09-06T05:16:11.657Z,16.75
2017-09-06T05:17:11.614Z,16.83
2017-09-06T05:18:11.588Z,16.76
2017-09-06T05:19:11.550Z,16.76
2017-09-06T05:20:11.525Z,16.76
2017-09-06T05:21:11.484Z,16.81
2017-09-06T05:22:11.462Z,16.87
2017-09-06T05:23:11.429Z,16.81
2017-09-06T05:24:11.391Z,16.97
2017-09-06T05:25:11.360Z,16.90
2017-09-06T05:26:11.338Z,16.86
2017-09-06T05:27:11.296Z,16.93
2017-09-06T05:28:11.261Z,16.96
2017-09-06T05:29:11.232Z,16.91
2017-09-06T05:30:11.203Z,16.94
2017-09-06T05:31:11.168Z,16.96
2017-09-06T05:32:11.134Z,16.96
2017-09-06T05:33:11.106Z,17.06
2017-09-06T05:34:11.067Z,17.02
2017-09-06T05:35:11.045Z,17.06
2017-09-06T05:36:11.011Z,17.15
2017-09-06T05:37:10.979Z,17.16
2017-09-06T05:38:10.940Z,17.16
2017-09-06T05:39:10.917Z,17.20
2017-09-06T05:40:10.874Z,17.24
2017-09-06T05:41:10.854Z,17.26
2017-09-06T05:42:10.813Z,17.29
2017-09-06T05:43:10.790Z,17.31
2017-09-06T05:44:10.752Z,17.29
2017-09-06T05:45:10.710Z,17.22
2017-09-06T05:46:10.685Z,17.26
2017-09-06T05:47:10.648Z,17.29
2017-09-06T05:48:10.624Z,17.23
2017-09-06T05:49:10.595Z,17.30
2017-09-06T05:50:10.560Z,17.33
2017-09-06T05:51:10.524Z,17.31
2017-09-06T05:52:10.493Z,17.31
2017-09-06T05:53:10.465Z,17.44
2017-09-06T05:54:10.431Z,17.44
2017-09-06T05:55:10.412Z,17.46
2017-09-06T05:56:10.359Z,17.48
2017-09-06T05:57:10.329Z,17.57
2017-09-06T05:58:10.309Z,17.63
2017-09-06T05:59:10.265Z,17.63
2017-09-06T06:00:10.249Z,17.57
2017-09-06T06:01:10.203Z,17.63
2017-09-06T06:02:10.172Z,17.54
2017-09-06T06:03:10.144Z,17.60
2017-09-06T06:04:10.117Z,17.51
2017-09-06T06:05:10.080Z,17.63
2017-09-06T06:06:10.051Z,17.60
2017-09-06T06:07:10.013Z,17.65
2017-09-06T06:08:09.988Z,17.54
2017-09-06T06:09:09.945Z,17.46
2017-09-06T06:10:09.916Z,17.49
2017-09-06T06:11:09.886Z,17.31
2017-09-06T06:12:09.850Z,17.48
2017-09-06T06:13:09.822Z,17.42
2017-09-06T06:14:09.788Z,17.54
2017-09-06T06:15:09.766Z,17.36
2017-09-06T06:16:09.733Z,17.38
2017-09-06T06:17:09.698Z,17.39
2017-09-06T06:18:09.664Z,17.39
2017-09-06T06:19:09.630Z,17.39
2017-09-06T06:20:09.600Z,17.36
2017-09-06T06:21:09.572Z,17.39
2017-09-06T06:22:09.532Z,17.36
2017-09-06T06:23:09.506Z,17.44
2017-09-06T06:24:09.471Z,17.59
2017-09-06T06:25:09.479Z,17.56
2017-09-06T06:26:09.411Z,17.68
2017-09-06T06:27:09.380Z,17.63
2017-09-06T06:28:09.369Z,17.74
2017-09-06T06:29:09.324Z,17.72
2017-09-06T06:30:09.280Z,17.78
2017-09-06T06:31:09.251Z,17.80
2017-09-06T06:32:09.221Z,17.85
2017-09-06T06:33:09.190Z,17.83
2017-09-06T06:34:09.151Z,17.86
2017-09-06T06:35:09.123Z,17.94
2017-09-06T06:36:09.130Z,18.04
2017-09-06T06:37:09.058Z,18.03
2017-09-06T06:38:09.031Z,18.00
2017-09-06T06:39:09.002Z,18.03
2017-09-06T06:40:08.977Z,18.00
2017-09-06T06:41:08.937Z,18.04
2017-09-06T06:42:08.914Z,18.04
2017-09-06T06:43:08.880Z,18.13
2017-09-06T06:44:08.842Z,18.19
2017-09-06T06:45:08.808Z,18.00
2017-09-06T06:46:08.779Z,18.15
2017-09-06T06:47:08.754Z,18.10
2017-09-06T06:48:08.713Z,18.23
2017-09-06T06:49:08.683Z,18.15
2017-09-06T06:50:08.665Z,18.26
2017-09-06T06:51:08.648Z,18.22
2017-09-06T06:52:08.588Z,18.25
2017-09-06T06:53:08.560Z,18.43
2017-09-06T06:54:08.523Z,18.47
2017-09-06T06:55:08.494Z,18.41
2017-09-06T06:56:08.461Z,18.45
2017-09-06T06:57:08.439Z,18.40
2017-09-06T06:58:08.400Z,18.47
2017-09-06T06:59:08.374Z,18.56
2017-09-06T07:00:08.343Z,18.47
2017-09-06T07:01:08.310Z,18.49
2017-09-06T07:02:08.285Z,18.40
2017-09-06T07:03:08.255Z,18.56
2017-09-06T07:04:08.216Z,18.50
2017-09-06T07:05:08.185Z,18.56
2017-09-06T07:06:08.186Z,18.60
2017-09-06T07:07:08.126Z,18.59
2017-09-06T07:08:08.096Z,18.70
2017-09-06T07:09:08.063Z,18.65
2017-09-06T07:10:08.039Z,18.60
2017-09-06T07:11:08.007Z,18.58
2017-09-06T07:12:07.972Z,18.60
2017-09-06T07:13:07.932Z,18.55
2017-09-06T07:14:07.904Z,18.63
2017-09-06T07:15:07.875Z,18.59
2017-09-06T07:16:07.869Z,18.58
2017-09-06T07:17:07.817Z,18.63
2017-09-06T07:18:07.784Z,18.56
2017-09-06T07:19:07.757Z,18.58
2017-09-06T07:20:07.750Z,18.70
2017-09-06T07:21:07.697Z,18.66
2017-09-06T07:22:07.658Z,18.75
2017-09-06T07:23:07.628Z,18.80
2017-09-06T07:24:07.602Z,18.88
2017-09-06T07:25:07.562Z,19.02
2017-09-06T07:26:07.533Z,19.11
2017-09-06T07:27:07.509Z,19.22
2017-09-06T07:28:07.479Z,19.26
2017-09-06T07:29:07.439Z,19.24
2017-09-06T07:30:07.415Z,19.27
2017-09-06T07:31:07.399Z,19.34
2017-09-06T07:32:07.351Z,19.24
2017-09-06T07:33:07.324Z,19.34
2017-09-06T07:34:07.303Z,19.33
2017-09-06T07:35:07.259Z,19.39
2017-09-06T07:36:07.245Z,19.36
2017-09-06T07:37:07.204Z,19.34
2017-09-06T07:38:07.166Z,19.41
2017-09-06T07:39:07.136Z,19.36
2017-09-06T07:40:07.104Z,19.41
2017-09-06T07:41:07.080Z,19.33
2017-09-06T07:42:07.052Z,19.41
2017-09-06T07:43:07.023Z,19.37
2017-09-06T07:44:06.994Z,19.34
2017-09-06T07:45:06.952Z,19.39
2017-09-06T07:46:06.927Z,19.30
2017-09-06T07:47:06.900Z,19.49
2017-09-06T07:48:06.864Z,19.37
2017-09-06T07:49:06.856Z,19.31
2017-09-06T07:50:06.802Z,19.26
2017-09-06T07:51:07.525Z,19.30
2017-09-06T07:52:06.739Z,19.44
2017-09-06T07:53:06.720Z,19.34
2017-09-06T07:54:06.683Z,19.30
2017-09-06T07:55:06.651Z,19.41
2017-09-06T07:56:06.629Z,19.44
2017-09-06T07:57:06.593Z,19.56
2017-09-06T07:58:06.571Z,19.45
2017-09-06T07:59:06.544Z,19.63
2017-09-06T08:00:06.519Z,19.70
2017-09-06T08:01:06.477Z,19.71
2017-09-06T08:02:06.447Z,19.88
2017-09-06T08:03:06.413Z,19.82
2017-09-06T08:04:06.391Z,19.89
2017-09-06T08:05:06.380Z,19.89
2017-09-06T08:06:06.327Z,20.04
2017-09-06T08:07:06.294Z,20.14
2017-09-06T08:08:06.266Z,20.14
2017-09-06T08:09:06.231Z,20.02
2017-09-06T08:10:06.202Z,20.09
2017-09-06T08:11:06.181Z,19.94
2017-09-06T08:12:06.143Z,19.92
2017-09-06T08:13:06.113Z,19.86
2017-09-06T08:14:06.087Z,19.88
2017-09-06T08:15:06.064Z,19.84
2017-09-06T08:16:06.029Z,19.69
2017-09-06T08:17:05.994Z,19.59
2017-09-06T08:18:05.973Z,19.51
2017-09-06T08:19:05.951Z,19.40
2017-09-06T08:20:05.909Z,19.40
2017-09-06T08:21:05.880Z,19.34
2017-09-06T08:22:05.849Z,19.31
2017-09-06T08:23:05.814Z,19.31
2017-09-06T08:24:05.789Z,19.33
2017-09-06T08:25:05.764Z,19.22
2017-09-06T08:26:05.728Z,19.15
2017-09-06T08:27:05.696Z,19.19
2017-09-06T08:28:05.664Z,19.30
2017-09-06T08:29:05.648Z,19.31
2017-09-06T08:30:05.607Z,19.27
2017-09-06T08:31:05.582Z,19.44
2017-09-06T08:32:05.552Z,19.40
2017-09-06T08:33:05.525Z,19.45
2017-09-06T08:34:05.490Z,19.48
2017-09-06T08:35:05.462Z,19.34
2017-09-06T08:36:05.436Z,19.49
2017-09-06T08:37:05.406Z,19.52
2017-09-06T08:38:05.372Z,19.44
2017-09-06T08:39:05.369Z,19.36
2017-09-06T08:40:05.401Z,19.37
2017-09-06T08:41:05.291Z,19.34
2017-09-06T08:42:05.272Z,19.41
2017-09-06T08:43:05.234Z,19.49
2017-09-06T08:44:05.209Z,19.41
2017-09-06T08:45:05.171Z,19.33
2017-09-06T08:46:05.130Z,19.24
2017-09-06T08:47:05.107Z,19.26
2017-09-06T08:48:05.070Z,19.18
2017-09-06T08:49:05.037Z,18.93
2017-09-06T08:50:05.015Z,18.92
2017-09-06T08:51:04.987Z,19.00
2017-09-06T08:52:04.954Z,19.04
2017-09-06T08:53:04.920Z,18.96
2017-09-06T08:54:04.889Z,19.07
2017-09-06T08:55:04.864Z,19.19
2017-09-06T08:56:04.839Z,19.19
2017-09-06T08:57:04.799Z,19.18
2017-09-06T08:58:04.783Z,19.30
2017-09-06T08:59:04.737Z,19.27
2017-09-06T09:00:04.723Z,19.33
2017-09-06T09:01:04.685Z,19.39
2017-09-06T09:02:04.664Z,19.51
2017-09-06T09:03:04.618Z,19.48
2017-09-06T09:04:04.628Z,19.31
2017-09-06T09:05:04.572Z,19.39
2017-09-06T09:06:04.583Z,19.30
2017-09-06T09:07:04.570Z,19.21
2017-09-06T09:08:04.471Z,19.09
2017-09-06T09:09:04.470Z,19.08
2017-09-06T09:10:04.411Z,19.02
2017-09-06T09:11:04.385Z,19.11
2017-09-06T09:12:04.355Z,19.04
2017-09-06T09:13:04.338Z,19.02
2017-09-06T09:14:04.301Z,18.95
2017-09-06T09:15:04.268Z,18.75
2017-09-06T09:16:04.240Z,18.59
2017-09-06T09:17:04.211Z,18.55
2017-09-06T09:18:04.182Z,18.45
2017-09-06T09:19:04.145Z,18.37
2017-09-06T09:20:04.122Z,18.35
2017-09-06T09:21:04.089Z,18.38
2017-09-06T09:22:04.052Z,18.23
2017-09-06T09:23:04.027Z,18.33
2017-09-06T09:24:04.028Z,18.33
2017-09-06T09:25:03.966Z,18.44
2017-09-06T09:26:03.945Z,18.52
2017-09-06T09:27:03.916Z,18.49
2017-09-06T09:28:03.918Z,18.62
2017-09-06T09:29:03.852Z,18.58
2017-09-06T09:30:03.815Z,18.74
2017-09-06T09:31:03.788Z,18.71
2017-09-06T09:32:03.756Z,18.71
2017-09-06T09:33:03.715Z,18.74
2017-09-06T09:34:03.681Z,18.71
2017-09-06T09:35:03.688Z,18.81
2017-09-06T09:36:03.621Z,18.98
2017-09-06T09:37:03.593Z,19.02
2017-09-06T09:38:03.565Z,19.07
2017-09-06T09:39:03.536Z,19.21
2017-09-06T09:40:03.502Z,19.31
2017-09-06T09:41:03.475Z,19.47
2017-09-06T09:42:03.438Z,19.59
2017-09-06T09:43:03.417Z,19.84
2017-09-06T09:44:03.379Z,20.02
2017-09-06T09:45:03.349Z,20.11
2017-09-06T09:46:03.315Z,20.18
2017-09-06T09:47:03.293Z,20.26
2017-09-06T09:48:03.261Z,20.28
2017-09-06T09:49:03.233Z,20.19
2017-09-06T09:50:03.191Z,20.18
2017-09-06T09:51:03.223Z,20.25
2017-09-06T09:52:03.139Z,20.16
2017-09-06T09:53:03.106Z,20.22
2017-09-06T09:54:03.077Z,20.36
2017-09-06T09:55:03.050Z,20.40
2017-09-06T09:56:03.015Z,20.44
2017-09-06T09:57:02.993Z,20.62
2017-09-06T09:58:02.964Z,20.72
2017-09-06T09:59:02.931Z,20.96
2017-09-06T10:00:02.897Z,21.15
2017-09-06T10:01:02.876Z,21.25
2017-09-06T10:02:02.841Z,21.37
2017-09-06T10:03:02.811Z,21.40
2017-09-06T10:04:02.782Z,21.55
2017-09-06T10:05:02.758Z,21.54
2017-09-06T10:06:02.721Z,21.69
2017-09-06T10:07:02.698Z,21.82
2017-09-06T10:08:02.667Z,21.91
2017-09-06T10:09:02.637Z,21.95
2017-09-06T10:10:02.609Z,21.91
2017-09-06T10:11:02.578Z,21.83
2017-09-06T10:12:02.550Z,21.76
2017-09-06T10:13:02.518Z,21.75
2017-09-06T10:14:02.492Z,21.62
2017-09-06T10:15:02.465Z,21.61
2017-09-06T10:16:02.432Z,21.72
2017-09-06T10:17:02.400Z,21.77
2017-09-06T10:18:02.377Z,21.73
2017-09-06T10:19:02.355Z,21.69
2017-09-06T10:20:02.322Z,21.72
2017-09-06T10:21:02.293Z,21.85
2017-09-06T10:22:02.259Z,21.99
2017-09-06T10:23:02.233Z,21.96
2017-09-06T10:24:02.217Z,21.93
2017-09-06T10:25:02.179Z,21.98
2017-09-06T10:26:02.152Z,22.06
2017-09-06T10:27:02.123Z,22.14
2017-09-06T10:28:02.093Z,22.30
2017-09-06T10:29:02.076Z,22.30
2017-09-06T10:30:02.034Z,22.29
2017-09-06T10:31:02.016Z,22.32
2017-09-06T10:32:01.987Z,22.06
2017-09-06T10:33:01.958Z,22.06
2017-09-06T10:34:01.926Z,21.99
2017-09-06T10:35:01.904Z,21.85
2017-09-06T10:36:01.871Z,21.85
2017-09-06T10:37:01.852Z,21.80
2017-09-06T10:38:01.814Z,21.75
2017-09-06T10:39:01.897Z,21.64
2017-09-06T10:40:01.759Z,21.37
2017-09-06T10:41:01.727Z,21.40
2017-09-06T10:42:01.715Z,21.29
2017-09-06T10:43:01.670Z,21.35
2017-09-06T10:44:01.646Z,21.25
2017-09-06T10:45:01.621Z,21.20
2017-09-06T10:46:01.591Z,21.05
2017-09-06T10:47:01.568Z,20.97
2017-09-06T10:48:01.538Z,20.80
2017-09-06T10:49:01.521Z,20.77
2017-09-06T10:50:01.489Z,20.74
2017-09-06T10:51:01.450Z,20.62
2017-09-06T10:52:01.424Z,20.59
2017-09-06T10:53:01.391Z,20.55
2017-09-06T10:54:01.363Z,20.58
2017-09-06T10:55:01.341Z,20.59
2017-09-06T10:56:01.313Z,20.58
2017-09-06T10:57:01.282Z,20.75
2017-09-06T10:58:01.256Z,20.78
2017-09-06T10:59:01.230Z,20.81
2017-09-06T11:00:01.198Z,20.77
2017-09-06T11:01:01.198Z,20.97
2017-09-06T11:02:01.142Z,20.97
2017-09-06T11:03:01.114Z,20.96
2017-09-06T11:04:01.082Z,21.02
2017-09-06T11:05:01.054Z,21.12
2017-09-06T11:06:01.038Z,21.12
2017-09-06T11:07:00.997Z,21.15
2017-09-06T11:08:00.991Z,21.12
2017-09-06T11:09:00.944Z,21.00
2017-09-06T11:10:00.913Z,20.96
2017-09-06T11:11:00.894Z,21.03
2017-09-06T11:12:00.860Z,20.99
2017-09-06T11:13:00.830Z,20.87
2017-09-06T11:14:00.795Z,21.00
2017-09-06T11:15:00.773Z,20.99
2017-09-06T11:16:00.739Z,20.92
2017-09-06T11:17:00.712Z,20.96
2017-09-06T11:18:00.680Z,21.07
2017-09-06T11:19:00.662Z,21.15
2017-09-06T11:20:00.639Z,21.24
2017-09-06T11:21:00.596Z,21.35
2017-09-06T11:22:00.567Z,21.35
2017-09-06T11:23:00.553Z,21.43
2017-09-06T11:24:00.509Z,21.45
2017-09-06T11:25:00.486Z,21.58
2017-09-06T11:26:00.453Z,21.42
2017-09-06T11:27:00.428Z,21.70
2017-09-06T11:28:00.404Z,21.80
2017-09-06T11:29:00.374Z,21.67
2017-09-06T11:30:00.358Z,21.70
2017-09-06T11:31:00.313Z,21.67
2017-09-06T11:32:00.285Z,21.82
2017-09-06T11:33:00.254Z,21.85
2017-09-06T11:34:00.233Z,21.62
2017-09-06T11:35:00.205Z,21.58
2017-09-06T11:36:00.178Z,21.62
2017-09-06T11:37:00.143Z,21.43
2017-09-06T11:38:00.126Z,21.69
2017-09-06T11:39:00.093Z,21.70
2017-09-06T11:40:00.061Z,21.55
2017-09-06T11:41:00.045Z,21.73
2017-09-06T11:42:00.003Z,21.69
2017-09-06T11:42:59.973Z,21.70
2017-09-06T11:43:59.944Z,21.60
2017-09-06T11:44:59.922Z,21.82
2017-09-06T11:45:59.893Z,21.83
2017-09-06T11:46:59.855Z,21.91
2017-09-06T11:47:59.834Z,21.98
2017-09-06T11:48:59.801Z,22.11
2017-09-06T11:49:59.809Z,22.11
2017-09-06T11:50:59.758Z,21.96
2017-09-06T11:51:59.720Z,22.07
2017-09-06T11:52:59.829Z,22.10
2017-09-06T11:53:59.684Z,22.06
2017-09-06T11:54:59.643Z,22.22
2017-09-06T11:55:59.614Z,22.23
2017-09-06T11:56:59.583Z,22.35
2017-09-06T11:57:59.549Z,22.39
2017-09-06T11:58:59.525Z,22.45
2017-09-06T11:59:59.495Z,22.53
2017-09-06T12:00:59.472Z,22.54
2017-09-06T12:01:59.442Z,22.53
2017-09-06T12:02:59.419Z,22.57
2017-09-06T12:03:59.386Z,22.59
2017-09-06T12:04:59.359Z,22.68
2017-09-06T12:05:59.335Z,22.73
2017-09-06T12:06:59.316Z,22.81
2017-09-06T12:07:59.278Z,22.99
2017-09-06T12:08:59.250Z,23.06
2017-09-06T12:09:59.220Z,23.08
2017-09-06T12:10:59.195Z,23.15
2017-09-06T12:11:59.191Z,23.02
2017-09-06T12:12:59.146Z,23.06
2017-09-06T12:13:59.134Z,23.05
2017-09-06T12:14:59.085Z,23.17
2017-09-06T12:15:59.057Z,22.96
2017-09-06T12:16:59.027Z,22.98
2017-09-06T12:17:59.008Z,22.94
2017-09-06T12:18:58.973Z,22.70
2017-09-06T12:19:58.951Z,22.70
2017-09-06T12:20:58.939Z,22.43
2017-09-06T12:21:58.896Z,22.17
2017-09-06T12:22:58.879Z,22.23
2017-09-06T12:23:58.863Z,22.36
2017-09-06T12:24:58.813Z,22.39
2017-09-06T12:25:58.786Z,22.38
2017-09-06T12:26:58.761Z,22.44
2017-09-06T12:27:58.742Z,22.17
2017-09-06T12:28:58.697Z,22.14
2017-09-06T12:29:58.700Z,22.33
2017-09-06T12:30:58.660Z,22.43
2017-09-06T12:31:58.627Z,22.47
2017-09-06T12:32:58.597Z,22.55
2017-09-06T12:33:58.570Z,22.48
2017-09-06T12:34:58.557Z,22.39
2017-09-06T12:35:58.515Z,22.18
2017-09-06T12:36:58.479Z,22.20
2017-09-06T12:37:58.456Z,22.25
2017-09-06T12:38:58.465Z,22.20
2017-09-06T12:39:58.408Z,22.33
2017-09-06T12:40:58.372Z,22.10
2017-09-06T12:41:58.351Z,22.11
2017-09-06T12:42:58.321Z,22.20
2017-09-06T12:43:58.291Z,22.18
2017-09-06T12:44:58.261Z,22.32
2017-09-06T12:45:58.238Z,22.54
2017-09-06T12:46:58.209Z,22.57
2017-09-06T12:47:58.190Z,22.80
2017-09-06T12:48:58.151Z,22.87
2017-09-06T12:49:58.131Z,23.00
2017-09-06T12:50:58.106Z,23.17
2017-09-06T12:51:58.075Z,23.05